createdAt,value
2017-07-08T19:01:02.168Z,4.87
2017-07-08T19:03:29.341Z,5.23
2017-07-08T19:05:55.449Z,5.10
2017-07-08T19:08:21.559Z,4.70
2017-07-08T19:10:48.408Z,5.70
2017-07-08T19:13:15.246Z,4.93
2017-07-08T19:15:42.107Z,5.17
2017-07-08T19:18:08.942Z,6.20
2017-07-08T19:20:35.809Z,5.03
2017-07-08T19:23:01.933Z,5.37
2017-07-08T19:44:51.892Z,7.37
2017-07-08T19:47:19.831Z,7.33
2017-07-08T19:49:47.964Z,5.27
2017-07-08T19:55:29.278Z,7.93
2017-07-08T20:00:48.464Z,7.10
2017-07-08T20:03:20.597Z,8.20
2017-07-08T20:08:57.306Z,8.50
2017-07-08T20:11:38.635Z,7.70
2017-07-08T20:14:12.034Z,7.30
2017-07-08T20:16:38.190Z,6.40
2017-07-08T20:19:05.336Z,6.80
2017-07-08T20:24:28.699Z,7.20
2017-07-08T20:27:11.951Z,8.53
2017-07-08T20:29:38.032Z,9.13
2017-07-08T20:32:06.955Z,8.60
2017-07-08T20:37:40.256Z,9.27
2017-07-08T20:40:07.417Z,8.77
2017-07-08T20:42:44.189Z,7.80
2017-07-08T20:45:16.316Z,7.60
2017-07-08T20:47:55.581Z,7.90
2017-07-08T20:50:21.671Z,8.53
2017-07-08T20:53:08.206Z,12.77
2017-07-08T20:55:56.385Z,14.57
2017-07-08T20:58:33.426Z,11.07
2017-07-08T21:01:06.273Z,9.90
2017-07-08T21:03:39.361Z,10.67
2017-07-08T21:06:05.441Z,12.53
2017-07-08T21:08:45.865Z,13.60
2017-07-08T21:11:19.081Z,12.50
2017-07-08T21:13:56.497Z,10.50
2017-07-08T21:16:44.343Z,8.23
2017-07-08T21:19:19.425Z,7.23
2017-07-08T21:24:51.477Z,7.87
2017-07-08T21:27:36.910Z,7.50
2017-07-08T21:30:02.968Z,7.67
2017-07-08T21:32:29.120Z,7.67
2017-07-08T21:35:02.739Z,7.10
2017-07-08T21:37:32.104Z,8.90
2017-07-08T21:39:58.315Z,9.70
2017-07-08T21:42:25.481Z,8.40
2017-07-08T21:44:54.860Z,6.70
2017-07-08T21:47:27.030Z,6.40
2017-07-08T21:52:46.045Z,8.67
2017-07-08T21:55:12.078Z,9.00
2017-07-08T21:57:39.166Z,7.63
2017-07-08T22:00:19.620Z,7.23
2017-07-08T22:02:45.632Z,8.37
2017-07-08T22:05:12.376Z,8.93
2017-07-08T22:07:39.146Z,9.73
2017-07-08T22:10:05.175Z,8.87
2017-07-08T22:12:31.219Z,8.37
2017-07-08T22:14:57.249Z,8.20
2017-07-08T22:17:23.353Z,6.30
2017-07-08T22:19:50.143Z,6.40
2017-07-08T22:22:16.179Z,7.70
2017-07-08T22:24:42.211Z,6.60
2017-07-08T22:27:08.315Z,6.90
2017-07-08T22:29:34.417Z,8.87
2017-07-08T22:32:01.227Z,9.00
2017-07-08T22:34:27.338Z,7.80
2017-07-08T22:36:53.425Z,5.93
2017-07-08T22:39:20.220Z,5.90
2017-07-08T22:41:46.286Z,6.50
2017-07-08T22:44:13.111Z,5.60
2017-07-08T22:46:39.164Z,5.63
2017-07-08T22:49:05.976Z,6.67
2017-07-08T22:51:32.021Z,5.87
2017-07-08T22:53:58.109Z,5.07
2017-07-08T22:56:24.157Z,5.60
2017-07-08T22:58:50.232Z,5.23
2017-07-08T23:01:16.275Z,5.90
2017-07-08T23:03:43.127Z,5.90
2017-07-08T23:09:00.488Z,6.13
2017-07-08T23:11:26.568Z,8.07
2017-07-08T23:14:03.093Z,5.47
2017-07-08T23:16:29.125Z,5.20
2017-07-08T23:18:55.216Z,5.07
2017-07-08T23:21:22.048Z,5.00
2017-07-08T23:23:48.137Z,4.80
2017-07-08T23:26:14.231Z,4.43
2017-07-08T23:28:40.293Z,4.77
2017-07-08T23:31:06.398Z,4.40
2017-07-08T23:33:32.460Z,5.10
2017-07-08T23:35:58.529Z,7.30
2017-07-08T23:38:24.632Z,8.13
2017-07-08T23:40:50.717Z,6.87
2017-07-08T23:43:17.496Z,5.93
2017-07-08T23:45:43.550Z,5.20
2017-07-08T23:48:09.577Z,6.10
2017-07-08T23:50:35.632Z,5.40
2017-07-08T23:53:02.418Z,5.63
2017-07-08T23:55:28.528Z,4.20
2017-07-08T23:57:55.297Z,4.93
